Kam Paeng Phet, Thailand
Current Conditions -  °F | °C
As of 4:00 PM on Friday 31 Oct 2014 (Local Time) from VTPP Reporting Station
Few Clouds Few Clouds  
Wind Chill: 91°   Ceiling: Unl
Heat Index: 102°   Visibility: 6mi
Dew Point: 75°   Wind: 2mph
Humidity: 59%   Direction: NA
Pressure: 29.74"   Gusts: NA
Location:  16.48°N, 99.53°E
Report Text: VTPP 310900Z VRB02KT 9999 FEW025 33/24 Q1007
Loading
Personal Weather Stations






























Interactive Weather Map
Tropical Storm Tracking
New forecast layout! Learn more

10-Day Weather Forecast

Advertisements
Track Severe Weather on mobile